Time;durP1;ratioP1;P1;durP2;ratioP2;P2;SDS_P1;SDS_P2;PMS_P1;PMS_P2;Temp;Humidity;BMP_temperature;BMP_pressure;BME280_temperature;BME280_humidity;BME280_pressure;Samples;Min_cycle;Max_cycle;Signal;HPM_P1;HPM_P2
2021/10/16 00:00:43;;;;;;;3.13;1.50;;;;;;;7.80;100.00;100397.59;5092544;28;20466;-51
2021/10/16 00:03:46;;;;;;;3.13;1.98;;;;;;;7.90;100.00;100398.50;5092434;28;20062;-51
2021/10/16 00:06:48;;;;;;;1.35;0.88;;;;;;;8.01;100.00;100393.41;5092693;28;20082;-51
2021/10/16 00:09:51;;;;;;;0.57;0.55;;;;;;;8.09;100.00;100398.28;5092614;28;20093;-51
2021/10/16 00:12:54;;;;;;;4.32;1.05;;;;;;;8.18;100.00;100403.91;5092369;28;20093;-51
2021/10/16 00:15:57;;;;;;;0.98;0.45;;;;;;;8.19;100.00;100399.13;5092603;28;20573;-52
2021/10/16 00:19:00;;;;;;;7.68;0.65;;;;;;;8.25;100.00;100402.91;5092658;28;20424;-52
2021/10/16 00:22:04;;;;;;;0.32;0.32;;;;;;;8.18;100.00;100400.38;5092464;28;20065;-51
2021/10/16 00:25:07;;;;;;;0.22;0.22;;;;;;;8.19;100.00;100405.47;5092466;28;20047;-52
2021/10/16 00:28:11;;;;;;;3.25;1.40;;;;;;;8.19;100.00;100399.13;5092493;28;20446;-51
2021/10/16 00:31:14;;;;;;;0.75;0.65;;;;;;;8.14;100.00;100388.63;5092414;28;20404;-52
2021/10/16 00:34:17;;;;;;;2.28;0.80;;;;;;;8.08;100.00;100393.94;5092795;28;20133;-51
2021/10/16 00:37:24;;;;;;;8.07;1.27;;;;;;;7.99;100.00;100385.50;5092396;28;20047;-51
2021/10/16 00:40:27;;;;;;;0.65;0.55;;;;;;;7.86;100.00;100381.19;5092280;28;20047;-51
2021/10/16 00:43:30;;;;;;;1.02;0.80;;;;;;;7.72;100.00;100373.31;5092079;28;20047;-51
2021/10/16 00:46:33;;;;;;;3.05;1.30;;;;;;;7.54;100.00;100366.31;5094209;28;20511;-51
2021/10/16 00:49:36;;;;;;;0.85;0.57;;;;;;;7.37;100.00;100367.63;5096144;28;20086;-50
2021/10/16 00:52:40;;;;;;;0.35;0.35;;;;;;;7.23;100.00;100373.59;5096175;28;20090;-50
2021/10/16 00:55:44;;;;;;;2.30;1.75;;;;;;;7.12;100.00;100375.13;5096011;28;20047;-52
2021/10/16 00:58:47;;;;;;;3.08;1.27;;;;;;;7.03;100.00;100374.97;5095899;28;20082;-51
2021/10/16 01:01:49;;;;;;;1.70;0.70;;;;;;;6.95;100.00;100374.41;5095884;28;20116;-51
2021/10/16 01:04:53;;;;;;;8.40;1.70;;;;;;;6.87;100.00;100378.56;5095810;28;20093;-50
2021/10/16 01:07:56;;;;;;;0.73;0.65;;;;;;;6.81;100.00;100358.19;5095917;28;20129;-50
2021/10/16 01:10:59;;;;;;;1.15;0.75;;;;;;;6.74;100.00;100358.38;5095853;28;20083;-50
2021/10/16 01:14:04;;;;;;;1.20;0.93;;;;;;;6.71;100.00;100362.03;5095494;28;20071;-51
2021/10/16 01:17:07;;;;;;;0.50;0.50;;;;;;;6.67;100.00;100350.28;5095772;28;20166;-51
2021/10/16 01:20:14;;;;;;;1.67;0.93;;;;;;;6.68;100.00;100351.81;5095678;28;20106;-51
2021/10/16 01:23:17;;;;;;;0.40;0.40;;;;;;;6.63;100.00;100336.53;5095494;28;20039;-51
2021/10/16 01:26:20;;;;;;;1.58;0.68;;;;;;;6.66;100.00;100341.22;5095266;28;20050;-51
2021/10/16 01:29:25;;;;;;;0.70;0.70;;;;;;;6.64;100.00;100331.78;5095296;28;20085;-51
2021/10/16 01:32:28;;;;;;;1.55;0.80;;;;;;;6.58;100.00;100341.84;5095099;28;20045;-51
2021/10/16 01:35:31;;;;;;;2.67;0.57;;;;;;;6.56;100.00;100338.72;5095308;28;20079;-51
2021/10/16 01:38:34;;;;;;;0.57;0.57;;;;;;;6.48;100.00;100335.38;5095156;28;20093;-52
2021/10/16 01:41:37;;;;;;;3.42;1.08;;;;;;;6.44;100.00;100334.69;5095375;28;20128;-52
2021/10/16 01:44:41;;;;;;;1.95;0.70;;;;;;;6.41;100.00;100334.78;5094943;28;20077;-52
2021/10/16 01:47:54;;;;;;;0.38;0.38;;;;;;;6.32;100.00;100327.13;5094990;28;20043;-51
2021/10/16 01:50:57;;;;;;;2.30;0.80;;;;;;;6.28;100.00;100328.41;5094922;28;20078;-52
2021/10/16 01:54:01;;;;;;;0.40;0.40;;;;;;;6.21;100.00;100321.06;5094407;28;20069;-52
2021/10/16 01:57:04;;;;;;;0.40;0.40;;;;;;;6.18;100.00;100337.75;5094459;28;20043;-52
2021/10/16 02:00:09;;;;;;;1.45;0.80;;;;;;;6.10;100.00;100331.63;5095039;28;20047;-52
2021/10/16 02:03:12;;;;;;;9.25;1.63;;;;;;;6.04;100.00;100330.59;5094718;28;20553;-52
2021/10/16 02:06:14;;;;;;;1.35;1.00;;;;;;;5.97;100.00;100328.78;5094682;28;20066;-51
2021/10/16 02:09:17;;;;;;;0.70;0.70;;;;;;;5.89;100.00;100327.41;5094596;28;20131;-51
2021/10/16 02:12:21;;;;;;;3.53;1.20;;;;;;;5.84;100.00;100325.16;5094859;28;20101;-51
2021/10/16 02:15:23;;;;;;;1.88;1.17;;;;;;;5.78;100.00;100331.63;5094543;28;20047;-55
2021/10/16 02:18:26;;;;;;;1.38;0.75;;;;;;;5.73;100.00;100334.88;5094291;28;20086;-55
2021/10/16 02:21:30;;;;;;;0.30;0.30;;;;;;;5.66;100.00;100337.81;5093131;28;20499;-55
2021/10/16 02:24:32;;;;;;;2.17;1.35;;;;;;;5.60;100.00;100332.03;5093461;28;20039;-55
2021/10/16 02:27:35;;;;;;;1.85;1.15;;;;;;;5.55;100.00;100335.28;5094047;28;20189;-56
2021/10/16 02:30:38;;;;;;;2.13;1.08;;;;;;;5.50;100.00;100326.75;5094161;28;20075;-55
2021/10/16 02:33:41;;;;;;;1.67;0.68;;;;;;;5.42;100.00;100330.84;5093965;28;20571;-55
2021/10/16 02:36:43;;;;;;;1.35;1.25;;;;;;;5.40;100.00;100331.31;5093944;28;20397;-56
2021/10/16 02:39:46;;;;;;;1.30;1.15;;;;;;;5.43;100.00;100337.94;5094101;28;20046;-55
2021/10/16 02:42:49;;;;;;;1.65;1.00;;;;;;;5.38;100.00;100333.72;5094069;28;20502;-55
2021/10/16 02:45:52;;;;;;;1.10;0.68;;;;;;;5.31;100.00;100339.38;5093997;28;20499;-55
2021/10/16 02:48:55;;;;;;;0.90;0.90;;;;;;;5.26;100.00;100334.38;5094055;28;20046;-55
2021/10/16 02:51:58;;;;;;;0.57;0.25;;;;;;;5.19;100.00;100335.31;5094121;28;20048;-55
2021/10/16 02:55:00;;;;;;;1.05;1.00;;;;;;;5.09;100.00;100330.03;5093853;28;20963;-55
2021/10/16 02:58:03;;;;;;;0.50;0.50;;;;;;;5.08;100.00;100336.75;5094113;28;20038;-55
2021/10/16 03:01:06;;;;;;;1.27;0.95;;;;;;;5.09;100.00;100330.03;5094098;28;20043;-55
2021/10/16 03:04:09;;;;;;;1.65;1.23;;;;;;;5.01;100.00;100323.06;5093605;28;20092;-55
2021/10/16 03:07:12;;;;;;;1.73;1.10;;;;;;;4.96;100.00;100320.84;5093727;28;20047;-55
2021/10/16 03:10:15;;;;;;;2.65;0.90;;;;;;;4.90;100.00;100319.75;5093216;28;20051;-55
2021/10/16 03:13:18;;;;;;;0.80;0.80;;;;;;;4.82;100.00;100323.88;5093165;28;20476;-55
2021/10/16 03:16:23;;;;;;;1.20;1.08;;;;;;;4.80;100.00;100316.03;5093180;28;20401;-55
2021/10/16 03:19:26;;;;;;;0.60;0.60;;;;;;;4.78;100.00;100320.41;5093184;28;20117;-55
2021/10/16 03:22:29;;;;;;;1.08;0.95;;;;;;;4.73;100.00;100313.41;5093369;28;20046;-55
2021/10/16 03:25:31;;;;;;;2.83;1.23;;;;;;;4.72;100.00;100322.13;5092989;28;20089;-55
2021/10/16 03:28:34;;;;;;;10.60;1.27;;;;;;;4.73;100.00;100318.94;5093085;28;20043;-55
2021/10/16 03:31:38;;;;;;;0.90;0.90;;;;;;;4.69;100.00;100323.75;5092896;28;20046;-55
2021/10/16 03:34:41;;;;;;;0.55;0.55;;;;;;;4.57;100.00;100314.09;5093207;28;20075;-55
2021/10/16 03:37:44;;;;;;;6.53;1.73;;;;;;;4.54;100.00;100312.22;5092977;28;20050;-55
2021/10/16 03:40:47;;;;;;;1.92;1.80;;;;;;;4.55;100.00;100302.72;5092932;28;20138;-55
2021/10/16 03:43:49;;;;;;;15.98;1.40;;;;;;;4.49;100.00;100309.94;5092846;28;20065;-55
2021/10/16 03:46:52;;;;;;;1.25;1.15;;;;;;;4.42;100.00;100301.00;5092959;28;20096;-55
2021/10/16 03:49:55;;;;;;;0.80;0.80;;;;;;;4.34;100.00;100303.13;5092885;28;20135;-55
2021/10/16 03:52:58;;;;;;;0.68;0.68;;;;;;;4.29;100.00;100306.38;5092962;28;20055;-55
2021/10/16 03:56:01;;;;;;;0.63;0.63;;;;;;;4.25;100.00;100299.38;5092778;28;20128;-55
2021/10/16 03:59:04;;;;;;;1.92;1.25;;;;;;;4.21;100.00;100296.69;5093055;28;20070;-55
2021/10/16 04:02:07;;;;;;;0.80;0.73;;;;;;;4.17;100.00;100290.47;5092816;28;20063;-55
2021/10/16 04:05:11;;;;;;;1.63;1.52;;;;;;;4.15;100.00;100284.59;5092622;28;20089;-55
2021/10/16 04:08:13;;;;;;;1.15;1.13;;;;;;;4.09;100.00;100297.31;5092619;28;20054;-55
2021/10/16 04:11:16;;;;;;;0.85;0.85;;;;;;;4.03;100.00;100282.44;5092967;28;20043;-55
2021/10/16 04:14:19;;;;;;;22.92;2.05;;;;;;;4.02;100.00;100286.41;5092273;28;20039;-55
2021/10/16 04:17:22;;;;;;;0.95;0.50;;;;;;;4.01;100.00;100284.03;5092570;28;20047;-55
2021/10/16 04:20:25;;;;;;;0.63;0.63;;;;;;;3.96;100.00;100288.09;5094476;28;20043;-55
2021/10/16 04:23:28;;;;;;;1.45;1.35;;;;;;;3.99;100.00;100287.22;5096140;28;20539;-55
2021/10/16 04:26:31;;;;;;;1.35;0.60;;;;;;;4.14;100.00;100282.25;5096406;28;20074;-54
2021/10/16 04:29:34;;;;;;;6.07;1.50;;;;;;;4.23;100.00;100280.50;5096346;28;20057;-55
2021/10/16 04:32:36;;;;;;;0.57;0.57;;;;;;;4.10;100.00;100282.31;5096375;28;20119;-55
2021/10/16 04:35:41;;;;;;;0.95;0.95;;;;;;;4.16;100.00;100277.88;5096571;28;20071;-54
2021/10/16 04:38:49;;;;;;;1.33;1.10;;;;;;;4.22;100.00;100278.16;5096354;28;20047;-55
2021/10/16 04:41:52;;;;;;;1.13;1.02;;;;;;;4.24;100.00;100276.56;5096496;28;20069;-55
2021/10/16 04:44:55;;;;;;;2.50;1.27;;;;;;;4.28;100.00;100277.25;5096311;28;20130;-55
2021/10/16 04:47:58;;;;;;;0.60;0.60;;;;;;;4.32;100.00;100277.97;5096498;28;20046;-54
2021/10/16 04:51:01;;;;;;;0.70;0.70;;;;;;;4.35;100.00;100271.59;5096316;28;20540;-55
2021/10/16 04:54:04;;;;;;;1.98;1.15;;;;;;;4.46;100.00;100272.16;5096438;28;20090;-55
2021/10/16 04:57:07;;;;;;;5.97;1.40;;;;;;;4.50;100.00;100278.38;5096139;28;20200;-55
2021/10/16 05:00:10;;;;;;;0.95;0.95;;;;;;;4.49;100.00;100287.88;5096273;28;20101;-55
2021/10/16 05:03:13;;;;;;;1.15;1.10;;;;;;;4.46;100.00;100274.94;5096072;28;20051;-55
2021/10/16 05:06:19;;;;;;;3.72;1.00;;;;;;;4.46;100.00;100274.16;5096122;28;20047;-55
2021/10/16 05:09:22;;;;;;;1.67;1.00;;;;;;;4.45;100.00;100286.38;5095817;28;20419;-55
2021/10/16 05:12:25;;;;;;;2.90;1.02;;;;;;;4.41;100.00;100274.66;5095621;28;20047;-55
2021/10/16 05:15:28;;;;;;;1.35;1.35;;;;;;;4.49;100.00;100287.88;5095594;28;20047;-55
2021/10/16 05:18:32;;;;;;;1.65;1.27;;;;;;;4.55;100.00;100286.19;5095560;28;20043;-55
2021/10/16 05:21:35;;;;;;;1.45;1.17;;;;;;;4.62;100.00;100282.50;5095429;28;20510;-55
2021/10/16 05:24:38;;;;;;;1.17;1.08;;;;;;;4.59;100.00;100275.84;5095211;28;20047;-55
2021/10/16 05:27:42;;;;;;;0.63;0.63;;;;;;;4.68;100.00;100282.78;5095347;28;20051;-54
2021/10/16 05:30:45;;;;;;;2.75;1.67;;;;;;;4.72;100.00;100272.47;5095321;28;20149;-55
2021/10/16 05:33:47;;;;;;;0.88;0.88;;;;;;;4.74;100.00;100264.53;5095308;28;20449;-55
2021/10/16 05:37:00;;;;;;;4.65;1.33;;;;;;;4.79;100.00;100272.28;5095219;28;20089;-55
2021/10/16 05:40:04;;;;;;;1.13;0.93;;;;;;;4.88;100.00;100272.50;5095522;28;20051;-55
2021/10/16 05:43:07;;;;;;;4.88;1.63;;;;;;;4.91;100.00;100271.66;5094684;28;20036;-55
2021/10/16 05:46:11;;;;;;;0.57;0.57;;;;;;;5.01;100.00;100273.41;5094671;28;20055;-55
2021/10/16 05:49:14;;;;;;;1.25;0.98;;;;;;;5.07;100.00;100271.69;5095125;28;20143;-55
2021/10/16 05:52:17;;;;;;;0.90;0.82;;;;;;;5.09;100.00;100253.50;5095119;28;20051;-54
2021/10/16 05:55:20;;;;;;;1.10;0.77;;;;;;;5.20;100.00;100278.09;5094813;28;20586;-55
2021/10/16 05:58:25;;;;;;;1.73;1.25;;;;;;;5.28;100.00;100274.00;5094843;28;20055;-55
2021/10/16 06:01:28;;;;;;;0.88;0.85;;;;;;;5.33;100.00;100270.69;5094623;28;20603;-55
2021/10/16 06:04:31;;;;;;;2.97;1.13;;;;;;;5.37;100.00;100274.94;5094584;28;20546;-55
2021/10/16 06:07:34;;;;;;;1.27;0.85;;;;;;;5.43;100.00;100271.66;5094465;28;20121;-55
2021/10/16 06:10:36;;;;;;;0.60;0.60;;;;;;;5.48;100.00;100277.44;5094883;28;20519;-55
2021/10/16 06:13:39;;;;;;;4.78;1.67;;;;;;;5.57;100.00;100272.09;5094215;28;20109;-55
2021/10/16 06:16:42;;;;;;;1.15;1.15;;;;;;;5.62;100.00;100271.59;5094511;28;20408;-55
2021/10/16 06:19:45;;;;;;;6.60;0.80;;;;;;;5.63;100.00;100267.59;5094514;28;20097;-55
2021/10/16 06:22:49;;;;;;;4.70;1.23;;;;;;;5.73;100.00;100280.41;5094338;28;20051;-55
2021/10/16 06:25:52;;;;;;;1.83;1.02;;;;;;;5.77;100.00;100270.03;5094365;28;20096;-55
2021/10/16 06:28:55;;;;;;;1.30;1.20;;;;;;;5.83;100.00;100279.34;5094560;28;20093;-55
2021/10/16 06:31:58;;;;;;;4.88;0.98;;;;;;;5.85;100.00;100276.97;5094150;28;20503;-55
2021/10/16 06:35:04;;;;;;;0.50;0.45;;;;;;;5.87;100.00;100274.53;5094142;28;20047;-55
2021/10/16 06:38:08;;;;;;;0.80;0.68;;;;;;;5.87;100.00;100273.75;5094051;28;20127;-55
2021/10/16 06:41:11;;;;;;;12.88;0.63;;;;;;;5.84;100.00;100269.91;5094442;28;20069;-55
2021/10/16 06:44:14;;;;;;;1.92;0.65;;;;;;;5.82;100.00;100265.97;5092932;28;20096;-55
2021/10/16 06:47:16;;;;;;;5.10;1.35;;;;;;;5.90;100.00;100273.69;5093816;28;20086;-55
2021/10/16 06:50:19;;;;;;;3.38;1.65;;;;;;;5.98;100.00;100269.53;5093695;28;20078;-55
2021/10/16 06:53:22;;;;;;;0.85;0.73;;;;;;;6.01;100.00;100268.66;5093816;28;20043;-55
2021/10/16 06:56:26;;;;;;;1.38;0.80;;;;;;;6.10;100.00;100277.13;5093586;28;20039;-55
2021/10/16 06:59:29;;;;;;;2.33;1.08;;;;;;;6.15;100.00;100278.56;5093026;28;20164;-56
2021/10/16 07:02:32;;;;;;;1.75;1.33;;;;;;;6.20;100.00;100280.00;5093565;28;20039;-55
2021/10/16 07:05:36;;;;;;;6.38;1.80;;;;;;;6.26;100.00;100275.53;5093436;28;20545;-55
2021/10/16 07:08:38;;;;;;;6.40;2.70;;;;;;;6.35;100.00;100281.97;5093673;28;20653;-55
2021/10/16 07:11:41;;;;;;;9.60;2.53;;;;;;;6.42;100.00;100279.03;5093612;28;20443;-55
2021/10/16 07:14:45;;;;;;;6.88;2.78;;;;;;;6.51;100.00;100272.84;5093240;28;20544;-55
2021/10/16 07:17:48;;;;;;;12.77;4.05;;;;;;;6.58;100.00;100267.13;5093632;28;20054;-55
2021/10/16 07:20:51;;;;;;;10.25;2.15;;;;;;;6.67;100.00;100276.31;5093711;28;20179;-55
2021/10/16 07:23:53;;;;;;;1.67;1.00;;;;;;;6.73;100.00;100291.19;5093266;28;20112;-55
2021/10/16 07:26:56;;;;;;;20.83;3.05;;;;;;;6.83;100.00;100294.84;5093063;28;20050;-55
2021/10/16 07:30:00;;;;;;;6.63;3.45;;;;;;;6.92;100.00;100308.84;5093563;28;20047;-55
2021/10/16 07:33:03;;;;;;;18.52;2.47;;;;;;;7.01;100.00;100300.66;5093103;28;20129;-55
2021/10/16 07:36:06;;;;;;;10.35;3.22;;;;;;;7.04;100.00;100302.53;5092607;28;20042;-55
2021/10/16 07:39:10;;;;;;;5.00;2.47;;;;;;;7.04;100.00;100294.22;5092615;28;20051;-55
2021/10/16 07:42:13;;;;;;;8.30;3.10;;;;;;;7.22;100.00;100283.41;5092606;28;20051;-55
2021/10/16 07:45:17;;;;;;;1.73;1.05;;;;;;;7.32;100.00;100293.38;5092460;28;20038;-55
2021/10/16 07:48:19;;;;;;;4.97;1.48;;;;;;;7.45;100.00;100291.38;5092663;28;20055;-56
2021/10/16 07:51:22;;;;;;;2.97;1.42;;;;;;;7.60;100.00;100291.72;5092316;28;20485;-56
2021/10/16 07:54:25;;;;;;;7.35;3.00;;;;;;;7.72;100.00;100265.19;5091876;28;20238;-56
2021/10/16 07:57:28;;;;;;;2.42;1.05;;;;;;;7.84;100.00;100264.41;5092120;28;20043;-55
2021/10/16 08:00:31;;;;;;;12.43;2.58;;;;;;;7.94;100.00;100263.28;5092178;28;20043;-56
2021/10/16 08:03:36;;;;;;;2.72;2.00;;;;;;;8.05;100.00;100278.34;5091530;28;20059;-55
2021/10/16 08:06:38;;;;;;;9.52;2.95;;;;;;;8.19;100.00;100288.94;5091940;28;20050;-55
2021/10/16 08:09:41;;;;;;;2.25;2.05;;;;;;;8.27;100.00;100295.81;5091899;28;20035;-55
2021/10/16 08:12:44;;;;;;;7.22;1.92;;;;;;;8.40;100.00;100287.47;5091784;28;20051;-55
2021/10/16 08:15:47;;;;;;;5.55;3.03;;;;;;;8.42;100.00;100276.69;5091895;28;20047;-55
2021/10/16 08:18:51;;;;;;;2.25;1.90;;;;;;;8.49;100.00;100279.19;5091865;28;20180;-55
2021/10/16 08:21:54;;;;;;;11.95;2.67;;;;;;;8.61;100.00;100280.38;5091718;28;20154;-55
2021/10/16 08:24:58;;;;;;;6.22;2.17;;;;;;;8.67;100.00;100284.88;5091673;28;20568;-55
2021/10/16 08:28:12;;;;;;;7.20;2.83;;;;;;;8.80;100.00;100291.16;5091719;28;20055;-55
2021/10/16 08:31:16;;;;;;;3.88;2.55;;;;;;;8.90;100.00;100287.19;5091638;28;20043;-55
2021/10/16 08:34:18;;;;;;;8.52;2.40;;;;;;;9.00;100.00;100279.69;5091643;28;20070;-55
2021/10/16 08:37:21;;;;;;;3.58;2.22;;;;;;;9.14;100.00;100285.47;5090739;28;20093;-55
2021/10/16 08:40:25;;;;;;;5.95;1.65;;;;;;;9.30;100.00;100289.25;5091959;28;20078;-56
2021/10/16 08:43:28;;;;;;;3.22;1.80;;;;;;;9.43;100.00;100295.50;5091487;28;20054;-56
2021/10/16 08:46:38;;;;;;;8.25;2.42;;;;;;;9.47;100.00;100279.44;5091630;28;20043;-56
2021/10/16 08:49:44;;;;;;;7.63;2.78;;;;;;;9.54;100.00;100288.31;5059974;28;20794;-56
2021/10/16 08:52:47;;;;;;;2.67;1.52;;;;;;;9.61;100.00;100279.69;5060956;28;20112;-56
2021/10/16 08:55:51;;;;;;;18.83;2.55;;;;;;;9.71;100.00;100283.25;5060676;28;20035;-56
2021/10/16 08:58:55;;;;;;;4.28;1.48;;;;;;;9.75;100.00;100283.88;5060663;28;20390;-56
2021/10/16 09:02:04;;;;;;;3.88;1.83;;;;;;;9.92;100.00;100282.38;5060425;28;20370;-56
2021/10/16 09:05:14;;;;;;;3.40;1.85;;;;;;;10.12;100.00;100276.41;5060347;28;20526;-56
2021/10/16 09:08:29;;;;;;;7.28;2.40;;;;;;;10.33;100.00;100273.47;5063645;28;20039;-56
2021/10/16 09:11:44;;;;;;;3.45;1.88;;;;;;;10.48;100.00;100274.41;5064830;28;20708;-56
2021/10/16 09:14:49;;;;;;;1.20;1.10;;;;;;;10.62;100.00;100273.78;5065116;28;20205;-56
2021/10/16 09:18:06;;;;;;;4.35;0.85;;;;;;;10.77;100.00;100278.72;5064241;28;20032;-56
2021/10/16 09:21:15;;;;;;;4.57;1.15;;;;;;;10.90;100.00;100271.72;5065181;28;20038;-56
2021/10/16 09:24:29;;;;;;;4.38;2.13;;;;;;;10.98;100.00;100266.63;5064095;28;20169;-56
2021/10/16 09:27:32;;;;;;;9.35;1.67;;;;;;;11.08;100.00;100270.91;5065800;28;20145;-57
2021/10/16 09:30:35;;;;;;;5.03;1.50;;;;;;;11.13;100.00;100268.25;5066201;28;20062;-56
2021/10/16 09:33:46;;;;;;;2.25;1.52;;;;;;;11.19;100.00;100276.78;5066957;28;20039;-57
2021/10/16 09:36:49;;;;;;;2.17;2.03;;;;;;;11.18;100.00;100270.41;5066779;28;20082;-56
2021/10/16 09:39:56;;;;;;;14.48;2.00;;;;;;;11.30;100.00;100260.31;5064770;28;20063;-57
2021/10/16 09:42:59;;;;;;;2.25;1.10;;;;;;;11.39;100.00;100258.25;5064458;28;20111;-56
2021/10/16 09:46:14;;;;;;;2.60;1.63;;;;;;;11.51;100.00;100259.28;5064447;28;20051;-57
2021/10/16 09:49:37;;;;;;;2.05;1.88;;;;;;;11.68;100.00;100260.47;5064339;28;20107;-56
2021/10/16 09:52:42;;;;;;;3.67;1.77;;;;;;;11.84;100.00;100254.50;5063671;28;20558;-56
2021/10/16 09:55:45;;;;;;;3.70;1.05;;;;;;;11.94;100.00;100253.19;5064114;28;20360;-56
2021/10/16 09:58:50;;;;;;;2.03;1.23;;;;;;;12.09;100.00;100254.00;5064486;28;20090;-57
2021/10/16 10:01:54;;;;;;;4.85;1.25;;;;;;;12.15;100.00;100257.69;5063952;28;20846;-57
2021/10/16 10:05:01;;;;;;;9.52;1.48;;;;;;;12.30;100.00;100256.97;5063465;28;20051;-57
2021/10/16 10:08:04;;;;;;;8.57;1.50;;;;;;;12.41;100.00;100263.53;5063890;28;20369;-56
2021/10/16 10:11:09;;;;;;;7.15;1.58;;;;;;;12.51;100.00;100251.03;5064718;28;20502;-55
2021/10/16 10:14:12;;;;;;;4.30;1.88;;;;;;;12.63;100.00;100252.00;5064444;28;20082;-55
2021/10/16 10:17:22;;;;;;;1.48;1.27;;;;;;;12.77;100.00;100246.44;5063821;28;20665;-55
2021/10/16 10:20:26;;;;;;;1.90;1.23;;;;;;;12.77;100.00;100246.44;5063357;28;20031;-56
2021/10/16 10:23:29;;;;;;;3.97;1.48;;;;;;;12.82;100.00;100253.41;5063484;28;20635;-56
2021/10/16 10:26:34;;;;;;;13.35;0.90;;;;;;;12.94;100.00;100250.31;5062723;28;20514;-56
2021/10/16 10:29:40;;;;;;;1.15;0.85;;;;;;;12.98;100.00;100243.72;5063189;28;20358;-56
2021/10/16 10:32:43;;;;;;;1.48;0.88;;;;;;;13.05;100.00;100244.16;5063396;28;20169;-56
2021/10/16 10:36:09;;;;;;;1.58;0.85;;;;;;;13.01;100.00;100243.56;5062583;28;20190;-56
2021/10/16 10:39:27;;;;;;;5.78;1.38;;;;;;;13.05;100.00;100244.16;5062664;28;20434;-56
2021/10/16 10:42:30;;;;;;;5.30;1.38;;;;;;;13.07;100.00;100238.84;5062973;28;20039;-56
2021/10/16 10:45:36;;;;;;;4.57;1.95;;;;;;;13.13;100.00;100239.72;5062347;28;20062;-56
2021/10/16 10:48:47;;;;;;;5.82;1.63;;;;;;;13.24;100.00;100244.72;5062311;28;20166;-56
2021/10/16 10:51:56;;;;;;;2.75;2.03;;;;;;;13.30;100.00;100237.94;5061902;28;20087;-56
2021/10/16 10:55:06;;;;;;;5.82;1.15;;;;;;;13.30;100.00;100240.75;5062263;28;20047;-56
2021/10/16 10:58:10;;;;;;;1.25;0.55;;;;;;;13.37;100.00;100234.75;5062038;28;20042;-56
2021/10/16 11:02:03;;;;;;;2.13;1.48;;;;;;;13.40;100.00;100235.81;5061363;28;20046;-56
2021/10/16 11:05:32;;;;;;;2.00;0.73;;;;;;;13.44;100.00;100230.78;5018418;28;20176;-55
2021/10/16 11:08:36;;;;;;;3.40;1.08;;;;;;;13.50;100.00;100229.63;5027312;28;20043;-56
2021/10/16 11:11:47;;;;;;;2.83;0.90;;;;;;;13.56;100.00;100222.06;5061040;28;20058;-56
2021/10/16 11:14:50;;;;;;;4.93;1.20;;;;;;;13.64;100.00;100223.19;5061863;28;20082;-56
2021/10/16 11:17:53;;;;;;;1.98;0.40;;;;;;;13.65;100.00;100224.75;5061170;28;20039;-56
2021/10/16 11:21:09;;;;;;;4.65;1.20;;;;;;;13.75;100.00;100221.81;5062389;28;20793;-56
2021/10/16 11:24:13;;;;;;;4.35;0.93;;;;;;;13.86;100.00;100221.97;5062413;28;20450;-56
2021/10/16 11:27:21;;;;;;;19.98;1.40;;;;;;;13.97;100.00;100210.91;5062252;28;20042;-56
2021/10/16 11:30:25;;;;;;;0.60;0.38;;;;;;;14.08;100.00;100203.41;5061944;28;20105;-56
2021/10/16 11:33:30;;;;;;;1.65;0.80;;;;;;;14.08;100.00;100197.03;5061486;28;20212;-56
2021/10/16 11:36:33;;;;;;;1.00;0.50;;;;;;;14.19;100.00;100199.97;5062276;28;20090;-56
2021/10/16 11:39:37;;;;;;;4.72;1.48;;;;;;;14.31;100.00;100196.06;5063045;28;20276;-56
2021/10/16 11:43:02;;;;;;;2.13;1.23;;;;;;;14.43;100.00;100192.13;5062603;28;20074;-56
2021/10/16 11:46:15;;;;;;;5.18;1.20;;;;;;;14.59;100.00;100187.94;5063578;28;20113;-56
2021/10/16 11:49:22;;;;;;;2.53;0.93;;;;;;;14.72;100.00;100180.69;5064981;28;20687;-56
2021/10/16 11:52:25;;;;;;;2.95;0.85;;;;;;;14.84;100.00;100181.53;5064760;28;20074;-56
2021/10/16 11:55:29;;;;;;;3.85;1.67;;;;;;;15.00;100.00;100178.88;5062312;28;20598;-56
2021/10/16 11:58:33;;;;;;;2.25;0.88;;;;;;;15.15;100.00;100173.91;5062382;28;20085;-56
2021/10/16 12:01:44;;;;;;;2.72;0.60;;;;;;;15.25;100.00;100171.66;5063436;28;20031;-56
2021/10/16 12:05:11;;;;;;;3.20;1.13;;;;;;;15.36;100.00;100160.50;5064492;28;20105;-56
2021/10/16 12:08:22;;;;;;;1.52;0.50;;;;;;;15.53;100.00;100155.78;5068845;28;20055;-54
2021/10/16 12:11:30;;;;;;;6.05;1.55;;;;;;;15.68;100.00;100150.75;5065980;28;20093;-53
2021/10/16 12:14:33;;;;;;;6.82;2.20;;;;;;;15.78;100.00;100148.50;5071223;28;20309;-54
2021/10/16 12:17:43;;;;;;;2.92;1.73;;;;;;;15.82;100.00;100151.84;5075667;28;20141;-53
2021/10/16 12:20:53;;;;;;;4.22;1.77;;;;;;;15.95;100.00;100146.53;5066831;28;20396;-53
2021/10/16 12:24:01;;;;;;;5.18;1.65;;;;;;;16.05;100.00;100149.91;5065522;28;20448;-53
2021/10/16 12:27:14;;;;;;;5.43;2.35;;;;;;;16.20;100.00;100148.38;5062147;28;20127;-54
2021/10/16 12:30:17;;;;;;;4.53;1.15;;;;;;;16.32;100.00;100144.34;5060685;28;20089;-54
2021/10/16 12:33:20;;;;;;;4.82;1.80;;;;;;;16.31;100.00;100137.16;5061043;28;20041;-54
2021/10/16 12:36:32;;;;;;;3.72;0.93;;;;;;;16.36;100.00;100138.47;5060415;28;20232;-53
2021/10/16 12:39:36;;;;;;;2.97;1.23;;;;;;;16.38;100.00;100125.44;5057789;28;20036;-53
2021/10/16 12:42:39;;;;;;;4.57;1.45;;;;;;;16.33;100.00;100122.63;5059960;28;20067;-53
2021/10/16 12:45:42;;;;;;;16.58;2.50;;;;;;;16.38;100.00;100119.81;5062366;28;20047;-53
2021/10/16 12:48:50;;;;;;;7.15;1.48;;;;;;;16.38;100.00;100117.00;5063126;28;20432;-53
2021/10/16 12:51:53;;;;;;;5.60;1.48;;;;;;;16.27;100.00;100119.78;5062657;28;20051;-54
2021/10/16 12:55:19;;;;;;;4.22;1.67;;;;;;;16.11;100.00;100117.72;5062296;28;20039;-53
2021/10/16 12:58:22;;;;;;;5.07;1.50;;;;;;;15.97;100.00;100112.31;5062695;28;20128;-53
2021/10/16 13:01:27;;;;;;;4.40;1.92;;;;;;;15.91;100.00;100109.50;5063414;28;20566;-53
2021/10/16 13:04:30;;;;;;;4.95;2.17;;;;;;;15.91;100.00;100107.47;5063106;28;20102;-53
2021/10/16 13:07:33;;;;;;;4.93;1.92;;;;;;;15.89;100.00;100101.59;5063084;28;20117;-54
2021/10/16 13:10:36;;;;;;;8.73;2.50;;;;;;;15.90;100.00;100102.31;5062478;28;20039;-53
2021/10/16 13:13:40;;;;;;;5.78;1.77;;;;;;;15.92;100.00;100094.16;5062603;28;20508;-53
2021/10/16 13:16:43;;;;;;;3.35;1.80;;;;;;;16.26;100.00;100090.16;5062686;28;20047;-54
2021/10/16 13:19:46;;;;;;;5.22;1.70;;;;;;;15.60;100.00;100087.94;5062984;28;20532;-53
2021/10/16 13:22:49;;;;;;;8.10;2.22;;;;;;;16.70;100.00;100083.06;5063478;28;20412;-53
2021/10/16 13:25:52;;;;;;;6.28;2.00;;;;;;;16.77;100.00;100077.66;5061734;28;20043;-53
2021/10/16 13:28:55;;;;;;;6.10;1.80;;;;;;;16.99;100.00;100072.03;5062614;28;20544;-53
2021/10/16 13:32:01;;;;;;;8.02;1.73;;;;;;;17.24;100.00;100070.16;5068728;28;20125;-52
2021/10/16 13:35:13;;;;;;;5.82;2.03;;;;;;;17.57;100.00;100067.25;5071427;28;20043;-50
2021/10/16 13:38:19;;;;;;;9.95;2.30;;;;;;;17.76;100.00;100062.53;5065210;28;20455;-50
2021/10/16 13:41:24;;;;;;;9.02;2.88;;;;;;;17.97;100.00;100062.97;5066563;28;20074;-50
2021/10/16 13:44:33;;;;;;;6.10;2.10;;;;;;;17.87;100.00;100054.03;5072962;28;20051;-51
2021/10/16 13:47:45;;;;;;;4.50;1.25;;;;;;;18.04;100.00;100057.50;5073628;28;20086;-50
2021/10/16 13:51:01;;;;;;;4.43;2.03;;;;;;;17.69;100.00;100057.47;5069867;28;20055;-51
2021/10/16 13:54:07;;;;;;;5.97;2.40;;;;;;;17.85;100.00;100045.34;5063541;28;20137;-51
2021/10/16 13:57:11;;;;;;;8.32;1.48;;;;;;;18.00;100.00;100042.94;5065252;28;20120;-51
2021/10/16 14:00:14;;;;;;;4.10;1.83;;;;;;;18.01;100.00;100044.50;5066250;28;20135;-51
2021/10/16 14:03:18;;;;;;;4.65;2.03;;;;;;;17.78;100.00;100028.97;5067304;28;20352;-50
2021/10/16 14:06:21;;;;;;;5.30;1.92;;;;;;;17.90;100.00;100033.28;5066945;28;20451;-50
2021/10/16 14:09:24;;;;;;;2.53;1.80;;;;;;;17.79;100.00;100022.06;5066300;28;20062;-51
2021/10/16 14:12:28;;;;;;;3.65;1.90;;;;;;;17.80;100.00;100026.41;5067226;28;20459;-50
2021/10/16 14:15:31;;;;;;;7.43;2.50;;;;;;;17.85;100.00;100022.81;5067477;28;20079;-50